sensor_id;sensor_type;location;lat;lon;timestamp;P1;durP1;ratioP1;P2;durP2;ratioP2
73684;SDS011;61985;51.070;14.064;2023-12-07T00:01:01;17.00;;;8.43;;
73684;SDS011;61985;51.070;14.064;2023-12-07T00:03:27;20.88;;;10.20;;
73684;SDS011;61985;51.070;14.064;2023-12-07T00:05:52;16.88;;;9.50;;
73684;SDS011;61985;51.070;14.064;2023-12-07T00:08:18;18.35;;;9.63;;
73684;SDS011;61985;51.070;14.064;2023-12-07T00:10:43;18.88;;;10.32;;
73684;SDS011;61985;51.070;14.064;2023-12-07T00:13:08;18.98;;;9.70;;
73684;SDS011;61985;51.070;14.064;2023-12-07T00:15:34;17.50;;;10.32;;
73684;SDS011;61985;51.070;14.064;2023-12-07T00:17:59;17.73;;;9.35;;
73684;SDS011;61985;51.070;14.064;2023-12-07T00:20:25;18.63;;;9.82;;
73684;SDS011;61985;51.070;14.064;2023-12-07T00:22:50;16.10;;;9.52;;
73684;SDS011;61985;51.070;14.064;2023-12-07T00:25:16;19.05;;;10.63;;
73684;SDS011;61985;51.070;14.064;2023-12-07T00:27:41;18.25;;;9.63;;
73684;SDS011;61985;51.070;14.064;2023-12-07T00:30:06;20.33;;;10.98;;
73684;SDS011;61985;51.070;14.064;2023-12-07T00:32:32;19.17;;;10.55;;
73684;SDS011;61985;51.070;14.064;2023-12-07T00:34:57;21.92;;;11.82;;
73684;SDS011;61985;51.070;14.064;2023-12-07T00:37:23;21.70;;;11.63;;
73684;SDS011;61985;51.070;14.064;2023-12-07T00:39:48;23.85;;;11.63;;
73684;SDS011;61985;51.070;14.064;2023-12-07T00:42:13;21.80;;;10.65;;
73684;SDS011;61985;51.070;14.064;2023-12-07T00:44:39;21.10;;;10.60;;
73684;SDS011;61985;51.070;14.064;2023-12-07T00:47:05;19.48;;;10.48;;
73684;SDS011;61985;51.070;14.064;2023-12-07T00:49:31;21.95;;;11.80;;
73684;SDS011;61985;51.070;14.064;2023-12-07T00:51:56;17.88;;;10.45;;
73684;SDS011;61985;51.070;14.064;2023-12-07T00:54:21;20.92;;;11.90;;
73684;SDS011;61985;51.070;14.064;2023-12-07T00:56:46;20.60;;;11.10;;
73684;SDS011;61985;51.070;14.064;2023-12-07T00:59:12;19.73;;;10.80;;
73684;SDS011;61985;51.070;14.064;2023-12-07T01:01:37;20.08;;;9.82;;
73684;SDS011;61985;51.070;14.064;2023-12-07T01:04:04;19.60;;;10.07;;
73684;SDS011;61985;51.070;14.064;2023-12-07T01:06:30;19.25;;;10.43;;
73684;SDS011;61985;51.070;14.064;2023-12-07T01:08:56;17.45;;;9.65;;
73684;SDS011;61985;51.070;14.064;2023-12-07T01:11:21;19.85;;;10.32;;
73684;SDS011;61985;51.070;14.064;2023-12-07T01:13:46;20.13;;;10.27;;
73684;SDS011;61985;51.070;14.064;2023-12-07T01:16:11;19.13;;;10.57;;
73684;SDS011;61985;51.070;14.064;2023-12-07T01:18:37;18.50;;;9.45;;
73684;SDS011;61985;51.070;14.064;2023-12-07T01:21:02;19.50;;;10.27;;
73684;SDS011;61985;51.070;14.064;2023-12-07T01:23:28;21.75;;;11.13;;
73684;SDS011;61985;51.070;14.064;2023-12-07T01:25:53;19.13;;;10.65;;
73684;SDS011;61985;51.070;14.064;2023-12-07T01:28:18;18.63;;;9.95;;
73684;SDS011;61985;51.070;14.064;2023-12-07T01:30:44;19.65;;;10.30;;
73684;SDS011;61985;51.070;14.064;2023-12-07T01:33:09;17.48;;;9.75;;
73684;SDS011;61985;51.070;14.064;2023-12-07T01:35:34;15.20;;;8.77;;
73684;SDS011;61985;51.070;14.064;2023-12-07T01:38:00;17.83;;;9.68;;
73684;SDS011;61985;51.070;14.064;2023-12-07T01:40:25;17.90;;;9.63;;
73684;SDS011;61985;51.070;14.064;2023-12-07T01:42:51;18.70;;;10.55;;
73684;SDS011;61985;51.070;14.064;2023-12-07T01:45:17;17.63;;;10.27;;
73684;SDS011;61985;51.070;14.064;2023-12-07T01:47:42;19.35;;;10.70;;
73684;SDS011;61985;51.070;14.064;2023-12-07T01:50:09;19.30;;;10.63;;
73684;SDS011;61985;51.070;14.064;2023-12-07T01:52:36;20.25;;;9.43;;
73684;SDS011;61985;51.070;14.064;2023-12-07T01:55:04;17.33;;;9.38;;
73684;SDS011;61985;51.070;14.064;2023-12-07T01:57:32;16.20;;;9.10;;
73684;SDS011;61985;51.070;14.064;2023-12-07T01:59:57;17.65;;;9.23;;
73684;SDS011;61985;51.070;14.064;2023-12-07T02:02:22;18.13;;;10.13;;
73684;SDS011;61985;51.070;14.064;2023-12-07T02:04:48;20.27;;;9.15;;
73684;SDS011;61985;51.070;14.064;2023-12-07T02:07:14;19.08;;;10.15;;
73684;SDS011;61985;51.070;14.064;2023-12-07T02:09:39;16.60;;;9.48;;
73684;SDS011;61985;51.070;14.064;2023-12-07T02:12:05;16.02;;;8.35;;
73684;SDS011;61985;51.070;14.064;2023-12-07T02:14:31;15.43;;;8.82;;
73684;SDS011;61985;51.070;14.064;2023-12-07T02:22:50;19.02;;;8.77;;
73684;SDS011;61985;51.070;14.064;2023-12-07T02:25:18;17.95;;;9.57;;
73684;SDS011;61985;51.070;14.064;2023-12-07T02:27:47;16.23;;;8.93;;
73684;SDS011;61985;51.070;14.064;2023-12-07T02:30:13;19.17;;;9.52;;
73684;SDS011;61985;51.070;14.064;2023-12-07T02:32:39;18.48;;;9.68;;
73684;SDS011;61985;51.070;14.064;2023-12-07T02:35:06;16.92;;;9.65;;
73684;SDS011;61985;51.070;14.064;2023-12-07T02:37:34;15.15;;;8.60;;
73684;SDS011;61985;51.070;14.064;2023-12-07T02:40:03;16.55;;;8.98;;
73684;SDS011;61985;51.070;14.064;2023-12-07T02:42:30;17.60;;;9.88;;
73684;SDS011;61985;51.070;14.064;2023-12-07T02:44:57;15.55;;;8.77;;
73684;SDS011;61985;51.070;14.064;2023-12-07T02:47:23;18.30;;;9.50;;
73684;SDS011;61985;51.070;14.064;2023-12-07T02:49:49;19.13;;;9.95;;
73684;SDS011;61985;51.070;14.064;2023-12-07T02:52:14;18.08;;;9.73;;
73684;SDS011;61985;51.070;14.064;2023-12-07T02:54:39;17.63;;;9.45;;
73684;SDS011;61985;51.070;14.064;2023-12-07T02:57:04;16.23;;;9.27;;
73684;SDS011;61985;51.070;14.064;2023-12-07T02:59:30;15.65;;;9.13;;
73684;SDS011;61985;51.070;14.064;2023-12-07T03:01:55;15.95;;;8.43;;
73684;SDS011;61985;51.070;14.064;2023-12-07T03:04:20;19.30;;;10.70;;
73684;SDS011;61985;51.070;14.064;2023-12-07T03:06:45;17.98;;;9.93;;
73684;SDS011;61985;51.070;14.064;2023-12-07T03:09:11;17.58;;;9.38;;
73684;SDS011;61985;51.070;14.064;2023-12-07T03:11:36;16.80;;;9.27;;
73684;SDS011;61985;51.070;14.064;2023-12-07T03:14:01;16.45;;;9.20;;
73684;SDS011;61985;51.070;14.064;2023-12-07T03:16:27;17.75;;;9.77;;
73684;SDS011;61985;51.070;14.064;2023-12-07T03:18:52;17.23;;;9.68;;
73684;SDS011;61985;51.070;14.064;2023-12-07T03:21:17;16.48;;;8.68;;
73684;SDS011;61985;51.070;14.064;2023-12-07T03:23:43;16.50;;;10.05;;
73684;SDS011;61985;51.070;14.064;2023-12-07T03:26:08;16.48;;;9.05;;
73684;SDS011;61985;51.070;14.064;2023-12-07T03:28:33;15.63;;;9.13;;
73684;SDS011;61985;51.070;14.064;2023-12-07T03:30:58;19.00;;;9.25;;
73684;SDS011;61985;51.070;14.064;2023-12-07T03:33:24;16.58;;;9.43;;
73684;SDS011;61985;51.070;14.064;2023-12-07T03:35:49;19.55;;;9.82;;
73684;SDS011;61985;51.070;14.064;2023-12-07T03:38:14;18.60;;;10.27;;
73684;SDS011;61985;51.070;14.064;2023-12-07T03:40:40;15.57;;;8.48;;
73684;SDS011;61985;51.070;14.064;2023-12-07T03:43:05;19.90;;;10.32;;
73684;SDS011;61985;51.070;14.064;2023-12-07T03:45:30;17.80;;;9.13;;
73684;SDS011;61985;51.070;14.064;2023-12-07T03:47:56;20.20;;;10.65;;
73684;SDS011;61985;51.070;14.064;2023-12-07T03:50:21;19.67;;;10.05;;
73684;SDS011;61985;51.070;14.064;2023-12-07T03:52:46;15.57;;;9.48;;
73684;SDS011;61985;51.070;14.064;2023-12-07T03:55:11;16.38;;;9.40;;
73684;SDS011;61985;51.070;14.064;2023-12-07T03:57:37;16.35;;;9.07;;
73684;SDS011;61985;51.070;14.064;2023-12-07T04:00:02;18.05;;;9.60;;
73684;SDS011;61985;51.070;14.064;2023-12-07T04:02:29;17.05;;;9.57;;
73684;SDS011;61985;51.070;14.064;2023-12-07T04:04:58;15.45;;;8.85;;
73684;SDS011;61985;51.070;14.064;2023-12-07T04:07:26;18.20;;;9.00;;
73684;SDS011;61985;51.070;14.064;2023-12-07T04:09:52;19.90;;;9.90;;
73684;SDS011;61985;51.070;14.064;2023-12-07T04:12:17;18.48;;;10.02;;
73684;SDS011;61985;51.070;14.064;2023-12-07T04:14:42;16.95;;;9.90;;
73684;SDS011;61985;51.070;14.064;2023-12-07T04:17:08;19.85;;;10.27;;
73684;SDS011;61985;51.070;14.064;2023-12-07T04:19:33;17.92;;;10.02;;
73684;SDS011;61985;51.070;14.064;2023-12-07T04:21:58;18.65;;;9.43;;
73684;SDS011;61985;51.070;14.064;2023-12-07T04:24:23;20.35;;;9.88;;
73684;SDS011;61985;51.070;14.064;2023-12-07T04:26:49;18.83;;;9.65;;
73684;SDS011;61985;51.070;14.064;2023-12-07T04:29:14;19.02;;;9.68;;
73684;SDS011;61985;51.070;14.064;2023-12-07T04:31:40;22.10;;;10.82;;
73684;SDS011;61985;51.070;14.064;2023-12-07T04:34:05;20.40;;;10.95;;
73684;SDS011;61985;51.070;14.064;2023-12-07T04:36:30;19.83;;;11.65;;
73684;SDS011;61985;51.070;14.064;2023-12-07T04:38:56;17.15;;;9.95;;
73684;SDS011;61985;51.070;14.064;2023-12-07T04:41:21;20.10;;;10.43;;
73684;SDS011;61985;51.070;14.064;2023-12-07T04:43:47;20.33;;;11.23;;
73684;SDS011;61985;51.070;14.064;2023-12-07T04:46:12;20.80;;;9.98;;
73684;SDS011;61985;51.070;14.064;2023-12-07T04:48:37;18.25;;;10.27;;
73684;SDS011;61985;51.070;14.064;2023-12-07T04:51:03;19.77;;;10.35;;
73684;SDS011;61985;51.070;14.064;2023-12-07T04:53:28;20.58;;;10.57;;
73684;SDS011;61985;51.070;14.064;2023-12-07T04:55:54;20.67;;;10.00;;
73684;SDS011;61985;51.070;14.064;2023-12-07T04:58:20;20.30;;;10.90;;
73684;SDS011;61985;51.070;14.064;2023-12-07T05:00:45;21.35;;;10.43;;
73684;SDS011;61985;51.070;14.064;2023-12-07T05:03:10;21.23;;;10.95;;
73684;SDS011;61985;51.070;14.064;2023-12-07T05:05:36;22.45;;;11.63;;
73684;SDS011;61985;51.070;14.064;2023-12-07T05:08:01;25.77;;;13.20;;
73684;SDS011;61985;51.070;14.064;2023-12-07T05:10:26;18.67;;;10.15;;
73684;SDS011;61985;51.070;14.064;2023-12-07T05:12:52;19.67;;;10.23;;
73684;SDS011;61985;51.070;14.064;2023-12-07T05:15:17;20.20;;;10.70;;
73684;SDS011;61985;51.070;14.064;2023-12-07T05:17:42;22.80;;;11.13;;
73684;SDS011;61985;51.070;14.064;2023-12-07T05:20:08;22.23;;;11.13;;
73684;SDS011;61985;51.070;14.064;2023-12-07T05:22:33;22.90;;;11.05;;
73684;SDS011;61985;51.070;14.064;2023-12-07T05:24:59;19.70;;;10.60;;
73684;SDS011;61985;51.070;14.064;2023-12-07T05:27:24;25.75;;;11.80;;
73684;SDS011;61985;51.070;14.064;2023-12-07T05:29:49;24.05;;;10.98;;
73684;SDS011;61985;51.070;14.064;2023-12-07T05:32:14;21.98;;;11.32;;
73684;SDS011;61985;51.070;14.064;2023-12-07T05:34:40;19.85;;;11.82;;
73684;SDS011;61985;51.070;14.064;2023-12-07T05:37:06;20.55;;;10.73;;
73684;SDS011;61985;51.070;14.064;2023-12-07T05:39:31;21.85;;;11.75;;
73684;SDS011;61985;51.070;14.064;2023-12-07T05:41:56;21.58;;;11.52;;
73684;SDS011;61985;51.070;14.064;2023-12-07T05:44:22;23.90;;;11.45;;
73684;SDS011;61985;51.070;14.064;2023-12-07T05:46:48;28.60;;;13.32;;
73684;SDS011;61985;51.070;14.064;2023-12-07T05:49:13;26.40;;;13.07;;
73684;SDS011;61985;51.070;14.064;2023-12-07T05:51:39;24.02;;;12.68;;
73684;SDS011;61985;51.070;14.064;2023-12-07T05:54:04;22.55;;;12.27;;
73684;SDS011;61985;51.070;14.064;2023-12-07T05:56:31;22.42;;;12.05;;
73684;SDS011;61985;51.070;14.064;2023-12-07T05:58:56;24.23;;;12.30;;
73684;SDS011;61985;51.070;14.064;2023-12-07T06:01:22;21.75;;;11.25;;
73684;SDS011;61985;51.070;14.064;2023-12-07T06:03:47;22.88;;;11.20;;
73684;SDS011;61985;51.070;14.064;2023-12-07T06:06:12;24.30;;;12.60;;
73684;SDS011;61985;51.070;14.064;2023-12-07T06:08:38;25.63;;;12.13;;
73684;SDS011;61985;51.070;14.064;2023-12-07T06:11:03;24.95;;;13.27;;
73684;SDS011;61985;51.070;14.064;2023-12-07T06:13:29;26.08;;;12.10;;
73684;SDS011;61985;51.070;14.064;2023-12-07T06:15:54;24.30;;;11.75;;
73684;SDS011;61985;51.070;14.064;2023-12-07T06:18:19;24.98;;;12.88;;
73684;SDS011;61985;51.070;14.064;2023-12-07T06:20:45;22.20;;;11.57;;
73684;SDS011;61985;51.070;14.064;2023-12-07T06:23:10;30.90;;;14.20;;
73684;SDS011;61985;51.070;14.064;2023-12-07T06:25:38;27.77;;;14.23;;
73684;SDS011;61985;51.070;14.064;2023-12-07T06:28:04;26.15;;;13.02;;
73684;SDS011;61985;51.070;14.064;2023-12-07T06:30:29;25.92;;;13.38;;
73684;SDS011;61985;51.070;14.064;2023-12-07T06:32:55;29.05;;;13.77;;
73684;SDS011;61985;51.070;14.064;2023-12-07T06:35:20;27.50;;;13.70;;
73684;SDS011;61985;51.070;14.064;2023-12-07T06:37:46;25.48;;;13.30;;
73684;SDS011;61985;51.070;14.064;2023-12-07T06:40:11;24.63;;;13.20;;
73684;SDS011;61985;51.070;14.064;2023-12-07T06:42:37;26.20;;;12.63;;
73684;SDS011;61985;51.070;14.064;2023-12-07T06:45:03;24.23;;;12.77;;
73684;SDS011;61985;51.070;14.064;2023-12-07T06:47:28;24.52;;;12.60;;
73684;SDS011;61985;51.070;14.064;2023-12-07T06:49:54;22.15;;;11.98;;
73684;SDS011;61985;51.070;14.064;2023-12-07T06:52:20;23.33;;;12.25;;
73684;SDS011;61985;51.070;14.064;2023-12-07T06:54:45;27.08;;;12.57;;
73684;SDS011;61985;51.070;14.064;2023-12-07T06:57:11;23.27;;;12.15;;
73684;SDS011;61985;51.070;14.064;2023-12-07T06:59:36;26.15;;;12.60;;
73684;SDS011;61985;51.070;14.064;2023-12-07T07:02:01;26.80;;;13.10;;
73684;SDS011;61985;51.070;14.064;2023-12-07T07:04:27;25.85;;;13.38;;
73684;SDS011;61985;51.070;14.064;2023-12-07T07:06:52;25.30;;;12.10;;
73684;SDS011;61985;51.070;14.064;2023-12-07T07:09:18;22.90;;;11.90;;
73684;SDS011;61985;51.070;14.064;2023-12-07T07:11:49;27.40;;;13.88;;
73684;SDS011;61985;51.070;14.064;2023-12-07T07:14:15;29.33;;;14.50;;
73684;SDS011;61985;51.070;14.064;2023-12-07T07:16:41;28.63;;;14.30;;
73684;SDS011;61985;51.070;14.064;2023-12-07T07:19:06;26.05;;;13.38;;
73684;SDS011;61985;51.070;14.064;2023-12-07T07:21:31;25.77;;;13.27;;
73684;SDS011;61985;51.070;14.064;2023-12-07T07:23:57;23.70;;;13.07;;
73684;SDS011;61985;51.070;14.064;2023-12-07T07:26:22;23.83;;;12.82;;
73684;SDS011;61985;51.070;14.064;2023-12-07T07:28:50;22.60;;;11.85;;
73684;SDS011;61985;51.070;14.064;2023-12-07T07:31:15;22.02;;;12.35;;
73684;SDS011;61985;51.070;14.064;2023-12-07T07:33:40;24.50;;;13.25;;
73684;SDS011;61985;51.070;14.064;2023-12-07T07:36:06;24.02;;;12.73;;
73684;SDS011;61985;51.070;14.064;2023-12-07T07:38:31;27.83;;;13.45;;
73684;SDS011;61985;51.070;14.064;2023-12-07T07:40:57;27.95;;;14.10;;
73684;SDS011;61985;51.070;14.064;2023-12-07T07:43:22;23.95;;;12.52;;
73684;SDS011;61985;51.070;14.064;2023-12-07T07:45:47;76.30;;;42.55;;
73684;SDS011;61985;51.070;14.064;2023-12-07T07:48:13;75.80;;;41.08;;
73684;SDS011;61985;51.070;14.064;2023-12-07T07:50:38;109.30;;;51.45;;
73684;SDS011;61985;51.070;14.064;2023-12-07T07:53:03;48.25;;;27.48;;
73684;SDS011;61985;51.070;14.064;2023-12-07T07:55:29;33.50;;;17.55;;
73684;SDS011;61985;51.070;14.064;2023-12-07T07:57:55;32.42;;;17.33;;
73684;SDS011;61985;51.070;14.064;2023-12-07T08:00:20;31.17;;;13.60;;
73684;SDS011;61985;51.070;14.064;2023-12-07T08:02:46;27.40;;;13.35;;
73684;SDS011;61985;51.070;14.064;2023-12-07T08:05:11;24.98;;;13.10;;
73684;SDS011;61985;51.070;14.064;2023-12-07T08:07:37;27.45;;;14.23;;
73684;SDS011;61985;51.070;14.064;2023-12-07T08:10:04;26.73;;;13.77;;
73684;SDS011;61985;51.070;14.064;2023-12-07T08:12:29;41.92;;;27.83;;
73684;SDS011;61985;51.070;14.064;2023-12-07T08:14:55;29.35;;;16.48;;
73684;SDS011;61985;51.070;14.064;2023-12-07T08:17:21;29.17;;;15.93;;
73684;SDS011;61985;51.070;14.064;2023-12-07T08:19:46;27.80;;;14.70;;
73684;SDS011;61985;51.070;14.064;2023-12-07T08:22:12;26.60;;;13.15;;
73684;SDS011;61985;51.070;14.064;2023-12-07T08:24:41;28.83;;;14.23;;
73684;SDS011;61985;51.070;14.064;2023-12-07T08:27:06;29.17;;;14.75;;
73684;SDS011;61985;51.070;14.064;2023-12-07T08:29:31;33.58;;;16.58;;
73684;SDS011;61985;51.070;14.064;2023-12-07T08:31:57;31.50;;;14.57;;
73684;SDS011;61985;51.070;14.064;2023-12-07T08:34:22;29.13;;;13.95;;
73684;SDS011;61985;51.070;14.064;2023-12-07T08:36:49;30.48;;;16.23;;
73684;SDS011;61985;51.070;14.064;2023-12-07T08:39:14;31.38;;;15.35;;
73684;SDS011;61985;51.070;14.064;2023-12-07T08:41:39;27.83;;;13.65;;
73684;SDS011;61985;51.070;14.064;2023-12-07T08:44:05;27.42;;;13.10;;
73684;SDS011;61985;51.070;14.064;2023-12-07T08:46:30;31.52;;;15.60;;
73684;SDS011;61985;51.070;14.064;2023-12-07T08:48:56;33.05;;;15.77;;
73684;SDS011;61985;51.070;14.064;2023-12-07T08:51:22;27.85;;;13.85;;
73684;SDS011;61985;51.070;14.064;2023-12-07T08:53:48;30.60;;;13.90;;
73684;SDS011;61985;51.070;14.064;2023-12-07T08:56:14;29.33;;;14.02;;
73684;SDS011;61985;51.070;14.064;2023-12-07T08:58:40;25.23;;;12.55;;
73684;SDS011;61985;51.070;14.064;2023-12-07T09:01:06;29.15;;;13.73;;
73684;SDS011;61985;51.070;14.064;2023-12-07T09:03:31;28.02;;;12.55;;
73684;SDS011;61985;51.070;14.064;2023-12-07T09:05:58;26.02;;;13.50;;
73684;SDS011;61985;51.070;14.064;2023-12-07T09:08:23;25.95;;;12.90;;
73684;SDS011;61985;51.070;14.064;2023-12-07T09:10:49;27.90;;;13.07;;
73684;SDS011;61985;51.070;14.064;2023-12-07T09:13:17;29.85;;;13.68;;
73684;SDS011;61985;51.070;14.064;2023-12-07T09:15:43;24.13;;;12.88;;
73684;SDS011;61985;51.070;14.064;2023-12-07T09:18:08;27.40;;;13.85;;
73684;SDS011;61985;51.070;14.064;2023-12-07T09:20:35;26.85;;;13.48;;
73684;SDS011;61985;51.070;14.064;2023-12-07T09:23:01;27.75;;;14.00;;
73684;SDS011;61985;51.070;14.064;2023-12-07T09:25:26;26.90;;;13.55;;
73684;SDS011;61985;51.070;14.064;2023-12-07T09:27:53;30.23;;;13.45;;
73684;SDS011;61985;51.070;14.064;2023-12-07T09:30:18;27.83;;;13.95;;
73684;SDS011;61985;51.070;14.064;2023-12-07T09:32:44;25.95;;;13.57;;
73684;SDS011;61985;51.070;14.064;2023-12-07T09:35:09;32.60;;;14.57;;
73684;SDS011;61985;51.070;14.064;2023-12-07T09:37:44;27.52;;;13.68;;
73684;SDS011;61985;51.070;14.064;2023-12-07T09:40:14;29.10;;;14.30;;
73684;SDS011;61985;51.070;14.064;2023-12-07T09:42:41;28.48;;;13.80;;
73684;SDS011;61985;51.070;14.064;2023-12-07T09:45:07;29.67;;;13.40;;
73684;SDS011;61985;51.070;14.064;2023-12-07T09:47:33;25.40;;;13.88;;
73684;SDS011;61985;51.070;14.064;2023-12-07T09:50:01;26.50;;;12.52;;
73684;SDS011;61985;51.070;14.064;2023-12-07T09:52:27;24.38;;;12.48;;
73684;SDS011;61985;51.070;14.064;2023-12-07T09:54:53;26.10;;;13.13;;
73684;SDS011;61985;51.070;14.064;2023-12-07T10:00:22;26.27;;;12.15;;
73684;SDS011;61985;51.070;14.064;2023-12-07T10:06:37;27.35;;;13.77;;
73684;SDS011;61985;51.070;14.064;2023-12-07T10:13:35;28.25;;;13.98;;
73684;SDS011;61985;51.070;14.064;2023-12-07T10:16:18;29.25;;;13.75;;
73684;SDS011;61985;51.070;14.064;2023-12-07T10:42:29;26.35;;;12.48;;
73684;SDS011;61985;51.070;14.064;2023-12-07T10:45:19;28.02;;;12.73;;
73684;SDS011;61985;51.070;14.064;2023-12-07T10:47:46;26.50;;;12.13;;
73684;SDS011;61985;51.070;14.064;2023-12-07T10:50:16;27.52;;;13.63;;
73684;SDS011;61985;51.070;14.064;2023-12-07T10:52:51;26.73;;;12.77;;
73684;SDS011;61985;51.070;14.064;2023-12-07T10:55:21;27.48;;;13.63;;
73684;SDS011;61985;51.070;14.064;2023-12-07T10:57:49;24.63;;;11.93;;
73684;SDS011;61985;51.070;14.064;2023-12-07T11:00:18;22.55;;;12.13;;
73684;SDS011;61985;51.070;14.064;2023-12-07T11:02:45;24.10;;;12.18;;
73684;SDS011;61985;51.070;14.064;2023-12-07T11:05:11;33.55;;;13.07;;
73684;SDS011;61985;51.070;14.064;2023-12-07T11:07:42;28.52;;;13.07;;
73684;SDS011;61985;51.070;14.064;2023-12-07T11:10:17;26.35;;;13.10;;
73684;SDS011;61985;51.070;14.064;2023-12-07T11:15:31;26.92;;;12.95;;
73684;SDS011;61985;51.070;14.064;2023-12-07T11:17:57;29.23;;;12.68;;
73684;SDS011;61985;51.070;14.064;2023-12-07T11:23:21;28.98;;;13.35;;
73684;SDS011;61985;51.070;14.064;2023-12-07T11:25:51;24.90;;;12.15;;
73684;SDS011;61985;51.070;14.064;2023-12-07T11:28:17;24.17;;;13.02;;
73684;SDS011;61985;51.070;14.064;2023-12-07T11:30:44;27.00;;;13.25;;
73684;SDS011;61985;51.070;14.064;2023-12-07T11:33:10;27.33;;;11.90;;
73684;SDS011;61985;51.070;14.064;2023-12-07T11:38:27;28.98;;;13.73;;
73684;SDS011;61985;51.070;14.064;2023-12-07T11:40:53;25.85;;;13.60;;
73684;SDS011;61985;51.070;14.064;2023-12-07T11:43:31;26.77;;;14.10;;
73684;SDS011;61985;51.070;14.064;2023-12-07T11:46:03;25.77;;;12.38;;
73684;SDS011;61985;51.070;14.064;2023-12-07T11:48:28;28.30;;;12.98;;
73684;SDS011;61985;51.070;14.064;2023-12-07T11:51:01;26.95;;;12.90;;
73684;SDS011;61985;51.070;14.064;2023-12-07T11:53:35;26.65;;;12.65;;
73684;SDS011;61985;51.070;14.064;2023-12-07T11:56:10;26.42;;;12.75;;
73684;SDS011;61985;51.070;14.064;2023-12-07T11:58:37;30.98;;;13.27;;
73684;SDS011;61985;51.070;14.064;2023-12-07T12:01:03;24.83;;;12.57;;
73684;SDS011;61985;51.070;14.064;2023-12-07T12:03:30;23.63;;;11.75;;
73684;SDS011;61985;51.070;14.064;2023-12-07T12:05:57;30.02;;;12.55;;
73684;SDS011;61985;51.070;14.064;2023-12-07T12:08:22;27.40;;;12.57;;
73684;SDS011;61985;51.070;14.064;2023-12-07T12:10:49;27.00;;;13.20;;
73684;SDS011;61985;51.070;14.064;2023-12-07T12:13:17;32.72;;;13.63;;
73684;SDS011;61985;51.070;14.064;2023-12-07T12:15:43;28.20;;;12.30;;
73684;SDS011;61985;51.070;14.064;2023-12-07T12:18:11;30.00;;;13.07;;
73684;SDS011;61985;51.070;14.064;2023-12-07T12:20:38;34.95;;;15.55;;
73684;SDS011;61985;51.070;14.064;2023-12-07T12:23:04;29.48;;;12.73;;
73684;SDS011;61985;51.070;14.064;2023-12-07T12:25:30;32.22;;;15.05;;
73684;SDS011;61985;51.070;14.064;2023-12-07T12:27:57;31.75;;;14.60;;
73684;SDS011;61985;51.070;14.064;2023-12-07T12:30:26;30.63;;;14.63;;
73684;SDS011;61985;51.070;14.064;2023-12-07T12:32:53;32.55;;;14.32;;
73684;SDS011;61985;51.070;14.064;2023-12-07T12:35:18;31.63;;;15.07;;
73684;SDS011;61985;51.070;14.064;2023-12-07T12:37:45;35.47;;;16.50;;
73684;SDS011;61985;51.070;14.064;2023-12-07T12:40:12;31.17;;;14.77;;
73684;SDS011;61985;51.070;14.064;2023-12-07T12:42:43;29.42;;;14.35;;
73684;SDS011;61985;51.070;14.064;2023-12-07T12:45:10;39.85;;;20.17;;
73684;SDS011;61985;51.070;14.064;2023-12-07T12:47:37;35.83;;;16.88;;
73684;SDS011;61985;51.070;14.064;2023-12-07T12:50:03;36.30;;;15.73;;
73684;SDS011;61985;51.070;14.064;2023-12-07T12:52:30;38.45;;;18.13;;
73684;SDS011;61985;51.070;14.064;2023-12-07T12:54:56;30.15;;;14.50;;
73684;SDS011;61985;51.070;14.064;2023-12-07T12:57:22;38.00;;;16.50;;
73684;SDS011;61985;51.070;14.064;2023-12-07T12:59:47;33.78;;;15.07;;
73684;SDS011;61985;51.070;14.064;2023-12-07T13:02:13;34.13;;;15.50;;
73684;SDS011;61985;51.070;14.064;2023-12-07T13:04:39;33.45;;;14.90;;
73684;SDS011;61985;51.070;14.064;2023-12-07T13:07:05;23.75;;;12.43;;
73684;SDS011;61985;51.070;14.064;2023-12-07T13:09:31;27.08;;;13.15;;
73684;SDS011;61985;51.070;14.064;2023-12-07T13:11:57;26.67;;;13.18;;
73684;SDS011;61985;51.070;14.064;2023-12-07T13:14:23;29.55;;;13.70;;
73684;SDS011;61985;51.070;14.064;2023-12-07T13:16:48;28.33;;;13.82;;
73684;SDS011;61985;51.070;14.064;2023-12-07T13:19:14;30.40;;;15.05;;
73684;SDS011;61985;51.070;14.064;2023-12-07T13:21:39;29.55;;;12.90;;
73684;SDS011;61985;51.070;14.064;2023-12-07T13:24:05;28.75;;;13.68;;
73684;SDS011;61985;51.070;14.064;2023-12-07T13:26:32;29.63;;;13.43;;
73684;SDS011;61985;51.070;14.064;2023-12-07T13:28:58;25.80;;;11.90;;
73684;SDS011;61985;51.070;14.064;2023-12-07T13:31:23;45.83;;;20.27;;
73684;SDS011;61985;51.070;14.064;2023-12-07T13:33:50;30.38;;;15.50;;
73684;SDS011;61985;51.070;14.064;2023-12-07T13:36:15;36.10;;;16.33;;
73684;SDS011;61985;51.070;14.064;2023-12-07T13:38:45;42.20;;;20.63;;
73684;SDS011;61985;51.070;14.064;2023-12-07T13:41:12;34.03;;;14.70;;
73684;SDS011;61985;51.070;14.064;2023-12-07T13:43:37;34.55;;;16.05;;
73684;SDS011;61985;51.070;14.064;2023-12-07T13:46:03;32.35;;;15.52;;
73684;SDS011;61985;51.070;14.064;2023-12-07T13:48:28;29.77;;;13.23;;
73684;SDS011;61985;51.070;14.064;2023-12-07T13:50:54;31.88;;;14.55;;
73684;SDS011;61985;51.070;14.064;2023-12-07T13:53:20;34.80;;;17.17;;
73684;SDS011;61985;51.070;14.064;2023-12-07T13:55:47;30.40;;;16.30;;
73684;SDS011;61985;51.070;14.064;2023-12-07T13:58:15;34.20;;;15.48;;
73684;SDS011;61985;51.070;14.064;2023-12-07T14:00:47;33.35;;;16.75;;
73684;SDS011;61985;51.070;14.064;2023-12-07T14:03:13;36.03;;;18.25;;
73684;SDS011;61985;51.070;14.064;2023-12-07T14:05:41;36.58;;;16.88;;
73684;SDS011;61985;51.070;14.064;2023-12-07T14:08:13;35.15;;;15.40;;
73684;SDS011;61985;51.070;14.064;2023-12-07T14:10:45;27.75;;;14.02;;
73684;SDS011;61985;51.070;14.064;2023-12-07T14:13:16;26.17;;;12.63;;
73684;SDS011;61985;51.070;14.064;2023-12-07T14:15:48;29.42;;;14.95;;
73684;SDS011;61985;51.070;14.064;2023-12-07T14:18:42;33.00;;;14.05;;
73684;SDS011;61985;51.070;14.064;2023-12-07T14:21:22;29.90;;;13.80;;
73684;SDS011;61985;51.070;14.064;2023-12-07T14:23:53;32.30;;;15.60;;
73684;SDS011;61985;51.070;14.064;2023-12-07T14:26:23;39.78;;;19.30;;
73684;SDS011;61985;51.070;14.064;2023-12-07T14:28:53;29.02;;;14.50;;
73684;SDS011;61985;51.070;14.064;2023-12-07T14:31:29;34.30;;;16.85;;
73684;SDS011;61985;51.070;14.064;2023-12-07T14:34:35;34.95;;;15.20;;
73684;SDS011;61985;51.070;14.064;2023-12-07T14:37:08;34.30;;;15.38;;
73684;SDS011;61985;51.070;14.064;2023-12-07T14:39:34;34.97;;;14.23;;
73684;SDS011;61985;51.070;14.064;2023-12-07T14:42:30;30.45;;;15.20;;
73684;SDS011;61985;51.070;14.064;2023-12-07T14:45:06;33.10;;;16.80;;
73684;SDS011;61985;51.070;14.064;2023-12-07T14:47:35;34.78;;;15.20;;
73684;SDS011;61985;51.070;14.064;2023-12-07T14:50:03;34.65;;;16.27;;
73684;SDS011;61985;51.070;14.064;2023-12-07T14:52:29;35.33;;;17.17;;
73684;SDS011;61985;51.070;14.064;2023-12-07T14:54:54;33.35;;;17.73;;
73684;SDS011;61985;51.070;14.064;2023-12-07T14:57:22;31.70;;;17.52;;